createdAt,value
2019-05-01T00:03:19.780Z,12.90
2019-05-01T00:06:26.187Z,11.37
2019-05-01T00:09:29.497Z,12.50
2019-05-01T00:12:32.433Z,13.47
2019-05-01T00:15:37.551Z,13.63
2019-05-01T00:18:40.470Z,12.03
2019-05-01T00:21:43.488Z,13.07
2019-05-01T00:24:46.485Z,13.53
2019-05-01T00:27:49.543Z,12.97
2019-05-01T00:30:52.981Z,13.20
2019-05-01T00:33:56.028Z,14.60
2019-05-01T00:36:59.034Z,14.33
2019-05-01T00:40:01.991Z,12.10
2019-05-01T00:43:05.647Z,12.90
2019-05-01T00:46:08.560Z,14.97
2019-05-01T00:49:11.487Z,14.73
2019-05-01T00:52:14.395Z,12.43
2019-05-01T00:55:35.520Z,16.00
2019-05-01T00:59:12.824Z,16.20
2019-05-01T01:02:35.519Z,14.20
2019-05-01T01:05:38.444Z,14.80
2019-05-01T01:08:41.363Z,14.87
2019-05-01T01:11:44.658Z,13.40
2019-05-01T01:14:48.083Z,15.70
2019-05-01T01:17:50.985Z,13.53
2019-05-01T01:20:53.908Z,16.67
2019-05-01T01:23:57.572Z,14.73
2019-05-01T01:27:00.596Z,15.60
2019-05-01T01:30:05.769Z,14.37
2019-05-01T01:33:08.779Z,14.47
2019-05-01T01:36:11.711Z,15.50
2019-05-01T01:39:14.618Z,16.67
2019-05-01T01:42:18.228Z,16.30
2019-05-01T01:45:37.265Z,14.40
2019-05-01T01:48:40.222Z,15.50
2019-05-01T01:51:43.133Z,16.23
2019-05-01T01:54:46.560Z,16.13
2019-05-01T01:57:49.465Z,17.00
2019-05-01T02:01:12.291Z,15.83
2019-05-01T02:04:40.781Z,15.53
2019-05-01T02:07:44.683Z,14.97
2019-05-01T02:10:47.810Z,13.87
2019-05-01T02:13:54.896Z,15.80
2019-05-01T02:16:57.832Z,17.03
2019-05-01T02:20:00.864Z,16.17
2019-05-01T02:23:03.882Z,16.93
2019-05-01T02:26:08.811Z,14.70
2019-05-01T02:29:23.612Z,14.00
2019-05-01T02:32:28.735Z,16.17
2019-05-01T02:35:34.388Z,14.43
2019-05-01T02:38:39.995Z,17.03
2019-05-01T02:41:44.725Z,14.03
2019-05-01T02:44:51.650Z,15.00
2019-05-01T02:47:55.392Z,14.07
2019-05-01T02:51:02.382Z,17.20
2019-05-01T02:54:05.679Z,18.07
2019-05-01T02:57:13.230Z,14.23
2019-05-01T03:00:16.161Z,15.00
2019-05-01T03:03:20.182Z,16.03
2019-05-01T03:06:24.113Z,16.17
2019-05-01T03:09:27.113Z,16.00
2019-05-01T03:12:33.025Z,17.20
2019-05-01T03:15:36.872Z,17.70
2019-05-01T03:18:45.223Z,16.80
2019-05-01T03:21:57.234Z,15.63
2019-05-01T03:25:00.370Z,16.37
2019-05-01T03:28:03.687Z,16.20
2019-05-01T03:31:07.235Z,18.80
2019-05-01T03:34:10.358Z,15.70
2019-05-01T03:37:13.673Z,16.93
2019-05-01T03:40:16.599Z,16.20
2019-05-01T03:43:20.353Z,17.67
2019-05-01T03:46:23.276Z,18.03
2019-05-01T03:49:26.633Z,16.37
2019-05-01T03:52:30.496Z,18.67
2019-05-01T03:55:33.622Z,18.40
2019-05-01T03:58:37.539Z,18.20
2019-05-01T04:01:48.114Z,14.70
2019-05-01T04:04:51.129Z,17.27
2019-05-01T04:07:54.155Z,17.23
2019-05-01T04:10:57.261Z,18.07
2019-05-01T04:14:00.309Z,16.13
2019-05-01T04:17:11.873Z,17.73
2019-05-01T04:20:15.306Z,18.13
2019-05-01T04:23:18.728Z,19.23
2019-05-01T04:26:21.936Z,21.00
2019-05-01T04:29:30.840Z,20.77
2019-05-01T04:32:50.800Z,19.40
2019-05-01T04:35:57.136Z,20.57
2019-05-01T04:39:00.337Z,24.70
2019-05-01T04:42:03.542Z,26.20
2019-05-01T04:45:06.885Z,23.10
2019-05-01T04:48:10.049Z,23.30
2019-05-01T04:51:13.297Z,20.63
2019-05-01T04:54:17.024Z,19.90
2019-05-01T04:57:20.130Z,20.20
2019-05-01T05:00:23.048Z,18.77
2019-05-01T05:03:27.675Z,22.87
2019-05-01T05:06:30.597Z,22.30
2019-05-01T05:09:47.169Z,20.00
2019-05-01T05:13:04.730Z,21.50
2019-05-01T05:16:23.444Z,22.03
2019-05-01T05:19:26.732Z,20.57
2019-05-01T05:22:30.549Z,22.00
2019-05-01T05:25:34.359Z,24.17
2019-05-01T05:28:38.692Z,22.37
2019-05-01T05:31:44.176Z,27.57
2019-05-01T05:34:49.616Z,21.90
2019-05-01T05:38:15.512Z,23.20
2019-05-01T05:41:20.949Z,23.40
2019-05-01T05:44:24.817Z,24.03
2019-05-01T05:47:28.258Z,23.27
2019-05-01T05:50:42.464Z,21.60
2019-05-01T05:53:51.814Z,20.50
2019-05-01T05:57:00.058Z,22.63
2019-05-01T06:00:22.511Z,21.70
2019-05-01T06:03:47.825Z,21.03
2019-05-01T06:07:21.147Z,22.30
2019-05-01T06:10:36.544Z,20.03
2019-05-01T06:13:59.012Z,20.80
2019-05-01T06:17:12.727Z,22.23
2019-05-01T06:20:25.721Z,25.33
2019-05-01T06:23:34.774Z,24.30
2019-05-01T06:26:39.452Z,21.83
2019-05-01T06:29:43.344Z,23.60
2019-05-01T06:32:48.140Z,21.60
2019-05-01T06:35:51.272Z,22.60
2019-05-01T06:38:55.700Z,24.43
2019-05-01T06:41:58.734Z,20.90
2019-05-01T06:45:07.879Z,22.70
2019-05-01T06:48:14.166Z,26.67
2019-05-01T06:51:53.394Z,26.17
2019-05-01T06:54:55.343Z,23.83
2019-05-01T06:57:58.493Z,21.87
2019-05-01T07:01:01.392Z,22.93
2019-05-01T07:04:05.147Z,20.20
2019-05-01T07:07:24.090Z,25.50
2019-05-01T07:10:13.904Z,24.47
2019-05-01T07:13:17.162Z,22.87
2019-05-01T07:16:20.524Z,23.10
2019-05-01T07:19:43.340Z,23.87
2019-05-01T07:22:47.469Z,21.50
2019-05-01T07:25:50.425Z,25.30
2019-05-01T07:28:56.182Z,24.60
2019-05-01T07:32:01.691Z,26.30
2019-05-01T07:35:04.166Z,21.70
2019-05-01T07:38:07.516Z,26.17
2019-05-01T07:41:12.412Z,21.20
2019-05-01T07:44:29.993Z,23.10
2019-05-01T07:47:42.221Z,22.47
2019-05-01T07:50:45.548Z,26.60
2019-05-01T07:53:49.348Z,23.53
2019-05-01T07:56:52.436Z,24.27
2019-05-01T07:59:58.394Z,23.97
2019-05-01T08:03:02.656Z,21.77
2019-05-01T08:06:05.923Z,23.03
2019-05-01T08:09:11.351Z,23.63
2019-05-01T08:12:18.876Z,23.30
2019-05-01T08:15:22.532Z,22.13
2019-05-01T08:18:51.342Z,22.47
2019-05-01T08:22:03.091Z,24.43
2019-05-01T08:25:08.008Z,24.47
2019-05-01T08:28:22.649Z,22.10
2019-05-01T08:31:38.560Z,22.70
2019-05-01T08:34:48.671Z,19.87
2019-05-01T08:37:46.301Z,22.33
2019-05-01T08:40:50.782Z,21.47
2019-05-01T08:43:55.892Z,20.97
2019-05-01T08:47:05.793Z,22.67
2019-05-01T08:50:11.670Z,21.83
2019-05-01T08:53:18.113Z,21.57
2019-05-01T08:56:22.081Z,21.17
2019-05-01T08:59:25.797Z,22.57
2019-05-01T09:02:28.894Z,21.53
2019-05-01T09:05:33.902Z,20.80
2019-05-01T09:08:36.897Z,22.20
2019-05-01T09:11:39.827Z,22.27
2019-05-01T09:14:42.756Z,21.67
2019-05-01T09:17:45.703Z,21.00
2019-05-01T09:20:51.031Z,21.60
2019-05-01T09:23:53.978Z,19.50
2019-05-01T09:27:24.008Z,22.73
2019-05-01T09:30:31.478Z,20.67
2019-05-01T09:33:34.533Z,20.90
2019-05-01T09:36:38.547Z,25.17
2019-05-01T09:39:41.570Z,22.53
2019-05-01T09:42:44.723Z,21.00
2019-05-01T09:45:48.234Z,20.90
2019-05-01T09:48:51.259Z,25.10
2019-05-01T09:52:01.958Z,26.10
2019-05-01T09:55:17.963Z,29.13
2019-05-01T09:58:20.941Z,26.37
2019-05-01T10:01:31.446Z,26.97
2019-05-01T10:04:31.215Z,25.63
2019-05-01T10:07:34.701Z,24.90
2019-05-01T10:10:37.617Z,25.97
2019-05-01T10:13:40.916Z,26.13
2019-05-01T10:16:43.817Z,27.30
2019-05-01T10:19:46.747Z,28.10
2019-05-01T10:22:51.644Z,27.03
2019-05-01T10:25:57.096Z,30.60
2019-05-01T10:29:21.382Z,27.30
2019-05-01T10:32:44.505Z,30.87
2019-05-01T10:36:07.044Z,29.80
2019-05-01T10:39:10.759Z,29.23
2019-05-01T10:42:13.695Z,30.07
2019-05-01T10:45:16.625Z,29.17
2019-05-01T10:48:19.536Z,28.37
2019-05-01T10:51:22.465Z,31.30
2019-05-01T10:54:25.376Z,30.07
2019-05-01T10:57:28.302Z,32.13
2019-05-01T11:00:31.628Z,33.37
2019-05-01T11:03:34.541Z,30.00
2019-05-01T11:06:37.509Z,32.13
2019-05-01T11:09:40.425Z,31.63
2019-05-01T11:12:43.384Z,30.60
2019-05-01T11:15:46.316Z,29.83
2019-05-01T11:18:49.229Z,30.63
2019-05-01T11:21:52.279Z,29.90
2019-05-01T11:24:55.215Z,29.47
2019-05-01T11:27:58.140Z,30.10
2019-05-01T11:31:01.060Z,28.97
2019-05-01T11:34:26.331Z,27.30
2019-05-01T11:37:40.057Z,28.53
2019-05-01T11:40:46.648Z,27.50
2019-05-01T11:43:49.574Z,26.20
2019-05-01T11:46:52.515Z,27.30
2019-05-01T11:49:55.414Z,29.67
2019-05-01T11:52:59.336Z,27.57
2019-05-01T11:56:02.238Z,27.70
2019-05-01T11:59:05.177Z,26.87
2019-05-01T12:02:08.117Z,30.23
2019-05-01T12:05:11.024Z,28.37
2019-05-01T12:08:13.992Z,28.00
2019-05-01T12:11:18.811Z,28.40
2019-05-01T12:14:21.769Z,27.10
2019-05-01T12:17:33.843Z,27.03
2019-05-01T12:20:36.794Z,27.97
2019-05-01T12:23:39.724Z,24.30
2019-05-01T12:26:42.635Z,26.13
2019-05-01T12:29:45.597Z,25.47
2019-05-01T12:32:48.671Z,26.20
2019-05-01T12:35:54.012Z,27.03
2019-05-01T12:38:57.271Z,27.77
2019-05-01T12:42:01.192Z,29.90
2019-05-01T12:45:07.163Z,29.43
2019-05-01T12:48:10.856Z,30.10
2019-05-01T12:51:13.875Z,29.83
2019-05-01T12:54:35.259Z,27.77
2019-05-01T12:57:38.185Z,28.97
2019-05-01T13:00:44.448Z,30.50
2019-05-01T13:03:47.408Z,27.90
2019-05-01T13:06:55.729Z,30.10
2019-05-01T13:09:59.182Z,31.20
2019-05-01T13:13:02.117Z,28.63
2019-05-01T13:16:06.151Z,30.97
2019-05-01T13:19:09.078Z,28.67
2019-05-01T13:22:11.993Z,28.07
2019-05-01T13:25:14.936Z,28.20
2019-05-01T13:28:36.146Z,28.10
2019-05-01T13:31:52.583Z,28.70
2019-05-01T13:34:55.523Z,28.47
2019-05-01T13:37:59.532Z,29.17
2019-05-01T13:41:02.507Z,28.70
2019-05-01T13:44:05.617Z,30.00
2019-05-01T13:47:08.570Z,27.33
2019-05-01T13:50:11.879Z,26.30
2019-05-01T13:53:14.936Z,27.13
2019-05-01T13:56:17.975Z,27.20
2019-05-01T13:59:20.885Z,29.30
2019-05-01T14:02:23.838Z,27.27
2019-05-01T14:05:27.081Z,30.10
2019-05-01T14:08:29.993Z,29.27
2019-05-01T14:11:32.934Z,29.63
2019-05-01T14:14:35.867Z,28.80
2019-05-01T14:17:38.804Z,27.67
2019-05-01T14:21:16.508Z,29.13
2019-05-01T14:24:32.057Z,29.40
2019-05-01T14:27:34.983Z,30.30
2019-05-01T14:30:37.925Z,27.23
2019-05-01T14:33:40.835Z,28.77
2019-05-01T14:36:43.782Z,23.47
2019-05-01T14:39:46.845Z,26.20
2019-05-01T14:42:49.778Z,26.67
2019-05-01T14:45:52.692Z,28.97
2019-05-01T14:48:55.626Z,26.13
2019-05-01T14:51:58.584Z,27.83
2019-05-01T14:55:01.527Z,26.77
2019-05-01T14:58:04.585Z,26.90
2019-05-01T15:01:07.507Z,25.67
2019-05-01T15:04:10.458Z,27.73
2019-05-01T15:07:14.394Z,26.37
2019-05-01T15:10:17.835Z,24.33
2019-05-01T15:13:41.831Z,29.37
2019-05-01T15:16:49.650Z,28.33
2019-05-01T15:20:00.518Z,27.67
2019-05-01T15:23:03.491Z,29.27
2019-05-01T15:26:06.428Z,31.17
2019-05-01T15:29:09.368Z,30.10
2019-05-01T15:32:12.273Z,31.87
2019-05-01T15:35:15.203Z,32.77
2019-05-01T15:38:18.156Z,29.93
2019-05-01T15:41:43.855Z,32.57
2019-05-01T15:44:47.887Z,33.37
2019-05-01T15:47:50.800Z,31.90
2019-05-01T15:50:53.737Z,33.40
2019-05-01T15:53:56.687Z,30.57
2019-05-01T15:56:59.616Z,31.70
2019-05-01T16:00:04.196Z,28.80
2019-05-01T16:03:09.188Z,31.17
2019-05-01T16:06:12.219Z,33.40
2019-05-01T16:09:15.331Z,32.27
2019-05-01T16:12:38.609Z,32.40
2019-05-01T16:15:41.549Z,31.93
2019-05-01T16:18:44.465Z,32.67
2019-05-01T16:21:47.756Z,35.20
2019-05-01T16:24:50.659Z,30.67
2019-05-01T16:27:53.591Z,34.30
2019-05-01T16:30:57.222Z,34.40
2019-05-01T16:34:01.236Z,31.53
2019-05-01T16:37:04.389Z,34.37
2019-05-01T16:40:17.595Z,32.27
2019-05-01T16:43:20.530Z,32.27
2019-05-01T16:46:23.469Z,34.17
2019-05-01T16:49:26.389Z,32.70
2019-05-01T16:52:31.242Z,31.80
2019-05-01T16:55:34.178Z,31.60
2019-05-01T16:58:37.591Z,33.80
2019-05-01T17:02:03.184Z,31.97
2019-05-01T17:05:24.286Z,31.87
2019-05-01T17:08:36.678Z,29.63
2019-05-01T17:11:40.092Z,31.00
2019-05-01T17:14:43.008Z,28.00
2019-05-01T17:17:46.050Z,28.93
2019-05-01T17:20:48.970Z,29.27
2019-05-01T17:23:51.992Z,27.23
2019-05-01T17:26:55.324Z,26.20
2019-05-01T17:29:58.762Z,26.77
2019-05-01T17:33:01.694Z,25.40
2019-05-01T17:36:04.719Z,26.60
2019-05-01T17:39:07.841Z,26.83
2019-05-01T17:42:12.275Z,29.57
2019-05-01T17:45:15.222Z,28.60
2019-05-01T17:48:18.154Z,27.73
2019-05-01T17:51:21.055Z,26.67
2019-05-01T17:54:23.986Z,23.90
2019-05-01T17:57:26.912Z,24.67
2019-05-01T18:00:48.070Z,22.33
2019-05-01T18:04:25.394Z,24.70
2019-05-01T18:07:33.202Z,24.43
2019-05-01T18:10:34.210Z,26.87
2019-05-01T18:13:38.919Z,21.43
2019-05-01T18:16:42.174Z,21.30
2019-05-01T18:19:45.075Z,21.20
2019-05-01T18:23:12.118Z,23.10
2019-05-01T18:26:21.657Z,22.33
2019-05-01T18:29:44.741Z,21.30
2019-05-01T18:32:52.096Z,21.77
2019-05-01T18:35:52.818Z,22.87
2019-05-01T18:38:59.986Z,22.40
2019-05-01T18:42:08.352Z,22.10
2019-05-01T18:45:31.628Z,21.03
2019-05-01T18:48:34.538Z,21.60
2019-05-01T18:51:40.713Z,20.67
2019-05-01T18:54:42.978Z,21.00
2019-05-01T18:57:45.895Z,20.77
2019-05-01T19:00:48.832Z,22.30
2019-05-01T19:03:51.789Z,21.00
2019-05-01T19:06:54.716Z,24.17
2019-05-01T19:09:57.668Z,20.47
2019-05-01T19:13:00.596Z,21.90
2019-05-01T19:16:07.926Z,21.57
2019-05-01T19:19:08.501Z,22.00
2019-05-01T19:22:11.522Z,21.70
2019-05-01T19:25:16.423Z,22.20
2019-05-01T19:28:20.707Z,22.30
2019-05-01T19:31:23.644Z,25.20
2019-05-01T19:34:26.567Z,22.90
2019-05-01T19:37:31.065Z,23.77
2019-05-01T19:40:34.467Z,25.10
2019-05-01T19:43:40.580Z,23.00
2019-05-01T19:46:43.433Z,25.10
2019-05-01T19:49:46.492Z,22.83
2019-05-01T19:52:49.387Z,23.47
2019-05-01T19:55:52.317Z,23.10
2019-05-01T19:58:55.342Z,27.20
2019-05-01T20:01:58.279Z,25.17
2019-05-01T20:05:01.329Z,26.30
2019-05-01T20:08:04.345Z,22.67
2019-05-01T20:11:09.534Z,23.90
2019-05-01T20:14:12.190Z,28.10
2019-05-01T20:17:15.129Z,25.90
2019-05-01T20:20:18.028Z,25.73
2019-05-01T20:23:21.165Z,25.47
2019-05-01T20:26:26.940Z,25.73
2019-05-01T20:29:28.919Z,27.60
2019-05-01T20:32:31.850Z,26.50
2019-05-01T20:35:34.779Z,24.90
2019-05-01T20:38:37.699Z,28.13
2019-05-01T20:41:40.736Z,25.93
2019-05-01T20:44:43.641Z,27.87
2019-05-01T20:47:48.175Z,23.77
2019-05-01T20:50:51.284Z,25.53
2019-05-01T20:53:54.222Z,26.47
2019-05-01T20:57:02.198Z,25.03
2019-05-01T21:00:06.346Z,26.37
2019-05-01T21:03:14.164Z,25.87
2019-05-01T21:06:28.369Z,27.37
2019-05-01T21:09:46.743Z,24.40
2019-05-01T21:12:39.002Z,26.60
2019-05-01T21:15:41.907Z,26.00
2019-05-01T21:18:45.626Z,25.17
2019-05-01T21:21:48.524Z,24.30
2019-05-01T21:24:53.161Z,25.40
2019-05-01T21:27:56.735Z,25.30
2019-05-01T21:30:59.928Z,27.53
2019-05-01T21:34:04.282Z,24.23
2019-05-01T21:37:07.659Z,27.10
2019-05-01T21:40:12.746Z,26.40
2019-05-01T21:43:15.745Z,24.43
2019-05-01T21:46:18.643Z,24.53
2019-05-01T21:49:22.936Z,24.17
2019-05-01T21:52:27.013Z,24.97
2019-05-01T21:55:31.791Z,22.80
2019-05-01T21:58:35.934Z,26.30
2019-05-01T22:01:39.062Z,24.50
2019-05-01T22:04:42.003Z,23.87
2019-05-01T22:07:45.223Z,25.70
2019-05-01T22:10:52.069Z,28.70
2019-05-01T22:13:55.000Z,24.70
2019-05-01T22:16:58.815Z,25.57
2019-05-01T22:20:01.936Z,27.20
2019-05-01T22:23:10.782Z,26.37
2019-05-01T22:26:13.802Z,26.63
2019-05-01T22:29:18.704Z,27.57
2019-05-01T22:32:41.572Z,23.83
2019-05-01T22:35:47.604Z,27.03
2019-05-01T22:38:50.519Z,25.50
2019-05-01T22:41:53.438Z,24.23
2019-05-01T22:44:56.346Z,27.57
2019-05-01T22:47:59.355Z,27.90
2019-05-01T22:51:18.025Z,25.53
2019-05-01T22:54:20.944Z,23.60
2019-05-01T22:57:23.871Z,26.70
2019-05-01T23:01:02.837Z,27.03
2019-05-01T23:04:07.466Z,24.80
2019-05-01T23:07:11.803Z,24.37
2019-05-01T23:10:16.206Z,26.93
2019-05-01T23:13:19.132Z,26.63
2019-05-01T23:16:28.737Z,25.47
2019-05-01T23:19:29.672Z,24.97
2019-05-01T23:22:32.737Z,25.33
2019-05-01T23:25:36.499Z,24.40
2019-05-01T23:28:41.087Z,22.73
2019-05-01T23:31:44.089Z,24.20
2019-05-01T23:34:47.004Z,23.40
2019-05-01T23:37:49.944Z,23.10
2019-05-01T23:40:53.006Z,22.40
2019-05-01T23:43:58.113Z,22.17
2019-05-01T23:47:00.951Z,22.93
2019-05-01T23:50:04.600Z,21.60
2019-05-01T23:53:09.079Z,20.33
2019-05-01T23:56:12.336Z,23.00
2019-05-01T23:59:15.611Z,22.97
